createdAt,value
2022-11-29T00:01:34.572Z,21.87
2022-11-29T00:04:02.348Z,22.77
2022-11-29T00:06:31.236Z,23.13
2022-11-29T00:09:00.584Z,18.90
2022-11-29T00:11:49.025Z,21.27
2022-11-29T00:14:17.618Z,24.53
2022-11-29T00:16:44.851Z,19.17
2022-11-29T00:19:12.981Z,19.50
2022-11-29T00:21:39.677Z,23.10
2022-11-29T00:24:06.857Z,19.70
2022-11-29T00:26:33.473Z,24.70
2022-11-29T00:29:00.476Z,18.90
2022-11-29T00:31:33.345Z,24.67
2022-11-29T00:34:02.300Z,25.47
2022-11-29T00:36:29.707Z,25.50
2022-11-29T00:38:56.524Z,26.80
2022-11-29T00:41:23.163Z,17.87
2022-11-29T00:43:49.779Z,23.77
2022-11-29T00:46:17.073Z,27.80
2022-11-29T00:48:43.983Z,24.37
2022-11-29T00:51:10.743Z,24.93
2022-11-29T00:53:38.266Z,26.03
2022-11-29T00:56:06.291Z,27.93
2022-11-29T00:58:35.963Z,24.50
2022-11-29T01:01:02.844Z,28.33
2022-11-29T01:03:29.863Z,25.10
2022-11-29T01:06:09.965Z,30.00
2022-11-29T01:08:37.219Z,26.13
2022-11-29T01:11:10.926Z,23.57
2022-11-29T01:13:38.160Z,26.70
2022-11-29T01:16:06.089Z,30.87
2022-11-29T01:18:33.454Z,27.13
2022-11-29T01:21:09.526Z,38.90
2022-11-29T01:23:37.204Z,29.67
2022-11-29T01:26:13.364Z,37.80
2022-11-29T01:28:41.429Z,25.03
2022-11-29T01:31:10.346Z,32.37
2022-11-29T01:33:37.985Z,27.97
2022-11-29T01:36:05.926Z,31.80
2022-11-29T01:38:32.815Z,31.00
2022-11-29T01:41:03.471Z,37.63
2022-11-29T01:43:31.017Z,32.57
2022-11-29T01:45:58.009Z,34.30
2022-11-29T01:48:31.004Z,31.37
2022-11-29T01:51:00.685Z,30.20
2022-11-29T01:53:28.115Z,27.47
2022-11-29T01:56:01.180Z,31.27
2022-11-29T01:58:28.969Z,30.77
2022-11-29T02:00:57.540Z,42.37
2022-11-29T02:03:24.644Z,33.80
2022-11-29T02:05:53.071Z,35.03
2022-11-29T02:08:31.528Z,30.77
2022-11-29T02:10:58.509Z,44.93
2022-11-29T02:13:30.651Z,46.53
2022-11-29T02:16:10.147Z,45.63
2022-11-29T02:18:54.668Z,33.67
2022-11-29T02:21:36.417Z,33.13
2022-11-29T02:24:44.374Z,34.90
2022-11-29T02:27:39.795Z,40.03
2022-11-29T02:30:16.557Z,45.57
2022-11-29T02:32:43.519Z,55.27
2022-11-29T02:35:34.756Z,30.10
2022-11-29T02:38:10.072Z,30.00
2022-11-29T02:40:57.194Z,33.10
2022-11-29T02:43:45.467Z,25.90
2022-11-29T02:46:36.813Z,31.03
2022-11-29T02:49:16.958Z,38.73
2022-11-29T02:52:01.731Z,33.50
2022-11-29T02:54:58.984Z,32.33
2022-11-29T02:57:45.691Z,28.97
2022-11-29T03:00:18.800Z,29.63
2022-11-29T03:03:20.333Z,29.23
2022-11-29T03:05:59.086Z,34.33
2022-11-29T03:09:01.508Z,27.27
2022-11-29T03:11:52.808Z,29.77
2022-11-29T03:14:30.155Z,31.23
2022-11-29T03:17:35.585Z,34.00
2022-11-29T03:20:30.803Z,28.77
2022-11-29T03:23:06.172Z,28.50
2022-11-29T03:25:45.536Z,33.37
2022-11-29T03:28:21.655Z,27.10
2022-11-29T03:31:07.066Z,26.27
2022-11-29T03:33:51.264Z,29.20
2022-11-29T03:36:20.925Z,33.07
2022-11-29T03:38:48.278Z,32.03
2022-11-29T03:41:17.949Z,32.90
2022-11-29T03:44:03.145Z,26.43
2022-11-29T03:46:30.204Z,35.47
2022-11-29T03:49:08.854Z,30.53
2022-11-29T03:52:15.060Z,35.90
2022-11-29T03:55:02.865Z,35.37
2022-11-29T03:58:09.824Z,29.03
2022-11-29T04:00:49.820Z,36.53
2022-11-29T04:03:32.442Z,28.67
2022-11-29T04:06:14.510Z,30.43
2022-11-29T04:09:02.717Z,35.87
2022-11-29T04:12:05.063Z,31.77
2022-11-29T04:14:34.796Z,28.57
2022-11-29T04:17:24.677Z,29.67
2022-11-29T04:19:56.956Z,33.80
2022-11-29T04:23:01.862Z,33.20
2022-11-29T04:26:05.682Z,34.20
2022-11-29T04:29:07.900Z,36.57
2022-11-29T04:31:53.330Z,30.63
2022-11-29T04:34:44.018Z,32.77
2022-11-29T04:37:37.277Z,34.10
2022-11-29T04:40:16.082Z,37.50
2022-11-29T04:43:15.089Z,29.47
2022-11-29T04:46:21.295Z,33.73
2022-11-29T04:49:15.005Z,37.57
2022-11-29T04:52:00.171Z,33.73
2022-11-29T04:54:57.013Z,43.37
2022-11-29T04:57:57.564Z,39.70
2022-11-29T05:00:25.083Z,35.83
2022-11-29T05:03:00.077Z,33.80
2022-11-29T05:05:52.528Z,30.67
2022-11-29T05:08:46.755Z,34.00
2022-11-29T05:11:27.996Z,38.27
2022-11-29T05:14:25.501Z,37.00
2022-11-29T05:17:18.964Z,33.43
2022-11-29T05:20:03.697Z,44.50
2022-11-29T05:22:50.232Z,43.63
2022-11-29T05:25:40.940Z,33.63
2022-11-29T05:28:20.841Z,40.57
2022-11-29T05:31:19.574Z,32.33
2022-11-29T05:34:05.055Z,38.75
2022-11-29T05:36:51.434Z,36.07
2022-11-29T05:39:55.932Z,35.07
2022-11-29T05:42:49.984Z,38.00
2022-11-29T05:45:28.555Z,32.87
2022-11-29T05:48:04.398Z,34.77
2022-11-29T05:50:40.066Z,30.37
2022-11-29T05:53:44.256Z,33.47
2022-11-29T05:56:35.033Z,39.07
2022-11-29T05:59:09.757Z,33.47
2022-11-29T06:02:05.331Z,37.23
2022-11-29T06:04:40.734Z,33.77
2022-11-29T06:07:16.595Z,38.90
2022-11-29T06:10:11.409Z,34.27
2022-11-29T06:12:38.860Z,30.07
2022-11-29T06:15:37.333Z,29.37
2022-11-29T06:18:28.452Z,31.47
2022-11-29T06:21:10.860Z,23.97
2022-11-29T06:23:37.892Z,28.70
2022-11-29T06:26:36.168Z,27.87
2022-11-29T06:29:23.845Z,21.90
2022-11-29T06:31:58.307Z,21.80
2022-11-29T06:34:56.341Z,20.70
2022-11-29T06:37:33.887Z,25.33
2022-11-29T06:40:01.058Z,24.87
2022-11-29T06:42:28.068Z,21.87
2022-11-29T06:44:55.079Z,17.60
2022-11-29T06:47:27.230Z,18.90
2022-11-29T06:50:09.267Z,15.67
2022-11-29T06:52:49.277Z,18.73
2022-11-29T06:55:57.460Z,19.07
2022-11-29T06:58:37.682Z,18.17
2022-11-29T07:01:33.465Z,16.57
2022-11-29T07:04:30.797Z,15.53
2022-11-29T07:06:57.669Z,17.73
2022-11-29T07:09:28.525Z,17.80
2022-11-29T07:11:55.693Z,14.83
2022-11-29T07:14:22.888Z,12.60
2022-11-29T07:16:54.460Z,14.10
2022-11-29T07:19:41.297Z,11.50
2022-11-29T07:22:54.564Z,13.87
2022-11-29T07:25:39.945Z,12.57
2022-11-29T07:28:29.601Z,15.07
2022-11-29T07:31:10.996Z,13.40
2022-11-29T07:33:58.592Z,14.10
2022-11-29T07:36:25.591Z,13.10
2022-11-29T07:39:21.193Z,14.63
2022-11-29T07:42:04.431Z,13.80
2022-11-29T07:44:55.852Z,17.57
2022-11-29T07:47:22.851Z,23.27
2022-11-29T07:49:49.880Z,17.13
2022-11-29T07:52:17.355Z,18.27
2022-11-29T07:54:44.619Z,17.00
2022-11-29T07:57:11.782Z,17.27
2022-11-29T07:59:38.776Z,21.63
2022-11-29T08:02:11.483Z,21.00
2022-11-29T08:04:44.843Z,18.93
2022-11-29T08:07:12.187Z,20.13
2022-11-29T08:09:39.232Z,20.57
2022-11-29T08:12:06.392Z,18.20
2022-11-29T08:14:33.341Z,21.53
2022-11-29T08:17:00.319Z,22.80
2022-11-29T08:19:26.944Z,17.77
2022-11-29T08:21:54.050Z,26.00
2022-11-29T08:24:21.038Z,21.83
2022-11-29T08:26:48.048Z,38.63
2022-11-29T08:29:15.252Z,25.30
2022-11-29T08:31:41.902Z,26.57
2022-11-29T08:34:10.512Z,26.00
2022-11-29T08:36:37.639Z,21.90
2022-11-29T08:39:09.221Z,25.60
2022-11-29T08:41:36.408Z,26.07
2022-11-29T08:44:05.232Z,26.67
2022-11-29T08:46:50.867Z,27.33
2022-11-29T08:49:17.855Z,22.20
2022-11-29T08:51:44.912Z,24.87
2022-11-29T08:54:11.925Z,19.23
2022-11-29T08:59:25.445Z,16.23
2022-11-29T09:01:52.501Z,19.80
2022-11-29T09:04:19.511Z,25.20
2022-11-29T09:06:49.414Z,21.90
2022-11-29T09:09:16.550Z,19.60
2022-11-29T09:11:48.103Z,21.33
2022-11-29T09:14:16.647Z,21.57
2022-11-29T09:19:34.376Z,18.83
2022-11-29T09:22:01.418Z,21.00
2022-11-29T09:24:28.403Z,22.53
2022-11-29T09:26:55.460Z,24.57
2022-11-29T09:29:22.492Z,24.83
2022-11-29T09:31:49.168Z,27.00
2022-11-29T09:34:18.301Z,23.47
2022-11-29T09:36:45.211Z,25.87
2022-11-29T09:39:12.383Z,20.50
2022-11-29T09:42:09.630Z,24.07
2022-11-29T09:45:07.608Z,23.07
2022-11-29T09:47:59.157Z,23.37
2022-11-29T09:50:36.345Z,26.03
2022-11-29T09:53:18.812Z,27.53
2022-11-29T09:56:10.673Z,30.90
2022-11-29T09:59:00.953Z,26.47
2022-11-29T10:01:37.419Z,26.70
2022-11-29T10:04:10.799Z,26.07
2022-11-29T10:06:43.405Z,21.67
2022-11-29T10:09:33.330Z,25.83
2022-11-29T10:12:06.359Z,25.77
2022-11-29T10:14:44.309Z,27.07
2022-11-29T10:17:23.902Z,30.53
2022-11-29T10:19:57.413Z,26.20
2022-11-29T10:22:39.301Z,27.03
2022-11-29T10:25:10.337Z,23.57
2022-11-29T10:27:40.594Z,28.20
2022-11-29T10:48:37.095Z,33.00
2022-11-29T10:51:04.227Z,35.57
2022-11-29T10:53:35.895Z,31.00
2022-11-29T10:56:13.947Z,32.33
2022-11-29T10:58:57.449Z,41.77
2022-11-29T11:01:26.060Z,53.40
2022-11-29T11:03:54.626Z,44.87
2022-11-29T11:06:24.870Z,37.23
2022-11-29T11:08:57.125Z,40.33
2022-11-29T11:11:30.376Z,37.43
2022-11-29T11:14:20.472Z,38.57
2022-11-29T11:16:47.277Z,58.27
2022-11-29T11:19:34.232Z,38.47
2022-11-29T11:22:04.422Z,38.97
2022-11-29T11:24:41.019Z,54.33
2022-11-29T11:27:07.781Z,36.93
2022-11-29T11:29:40.865Z,32.53
2022-11-29T11:32:27.802Z,39.00
2022-11-29T11:34:59.692Z,36.07
2022-11-29T11:37:33.516Z,39.93
2022-11-29T11:40:26.314Z,39.47
2022-11-29T11:42:53.458Z,41.00
2022-11-29T11:45:26.175Z,39.40
2022-11-29T11:47:56.284Z,46.17
2022-11-29T11:50:58.152Z,39.00
2022-11-29T11:53:31.457Z,35.60
2022-11-29T11:55:58.471Z,43.20
2022-11-29T11:58:50.228Z,41.50
2022-11-29T12:01:37.628Z,35.47
2022-11-29T12:04:23.323Z,46.43
2022-11-29T12:06:53.743Z,39.37
2022-11-29T12:09:30.576Z,40.97
2022-11-29T12:12:11.357Z,42.90
2022-11-29T12:15:05.262Z,40.97
2022-11-29T12:18:03.121Z,38.30
2022-11-29T12:20:42.283Z,35.93
2022-11-29T12:23:11.818Z,37.90
2022-11-29T12:26:05.419Z,39.27
2022-11-29T12:28:34.161Z,31.77
2022-11-29T12:31:19.210Z,39.00
2022-11-29T12:34:10.716Z,44.57
2022-11-29T12:36:51.007Z,41.10
2022-11-29T12:39:38.856Z,41.67
2022-11-29T12:42:26.477Z,36.07
2022-11-29T12:45:36.312Z,34.63
2022-11-29T12:48:34.584Z,34.83
2022-11-29T12:51:10.596Z,41.63
2022-11-29T12:53:43.210Z,38.07
2022-11-29T12:56:30.045Z,38.27
2022-11-29T12:59:09.719Z,50.53
2022-11-29T13:02:21.090Z,48.33
2022-11-29T13:05:00.024Z,34.70
2022-11-29T13:07:46.660Z,41.57
2022-11-29T13:10:39.173Z,36.00
2022-11-29T13:13:19.991Z,33.93
2022-11-29T13:15:49.917Z,35.67
2022-11-29T13:18:35.367Z,35.77
2022-11-29T13:21:11.243Z,36.07
2022-11-29T13:24:10.527Z,37.97
2022-11-29T13:26:40.105Z,31.60
2022-11-29T13:29:13.119Z,42.57
2022-11-29T13:31:40.374Z,53.43
2022-11-29T13:34:22.586Z,52.73
2022-11-29T13:36:49.655Z,34.20
2022-11-29T13:39:58.336Z,31.53
2022-11-29T13:42:38.315Z,34.33
2022-11-29T13:45:05.358Z,35.87
2022-11-29T13:47:32.071Z,39.33
2022-11-29T13:50:06.619Z,37.13
2022-11-29T13:52:43.465Z,34.67
2022-11-29T13:55:14.246Z,34.43
2022-11-29T13:58:16.276Z,33.33
2022-11-29T14:00:46.647Z,29.33
2022-11-29T14:03:28.870Z,44.10
2022-11-29T14:06:01.657Z,35.47
2022-11-29T14:08:37.881Z,32.60
2022-11-29T14:11:14.544Z,35.17
2022-11-29T14:13:41.524Z,36.83
2022-11-29T14:16:18.002Z,29.33
2022-11-29T14:18:44.536Z,32.83
2022-11-29T14:21:11.625Z,33.37
2022-11-29T14:23:43.084Z,31.70
2022-11-29T14:26:09.715Z,31.60
2022-11-29T14:28:39.183Z,35.93
2022-11-29T14:31:07.724Z,36.20
2022-11-29T14:33:34.749Z,40.73
2022-11-29T14:36:26.455Z,39.67
2022-11-29T14:39:33.110Z,38.77
2022-11-29T14:42:06.344Z,33.00
2022-11-29T14:44:42.408Z,33.63
2022-11-29T14:47:20.944Z,42.57
2022-11-29T14:49:48.024Z,37.97
2022-11-29T14:52:14.632Z,41.13
2022-11-29T14:55:01.239Z,45.60
2022-11-29T14:57:49.654Z,36.80
2022-11-29T15:00:38.906Z,52.67
2022-11-29T15:03:32.808Z,50.80
2022-11-29T15:06:10.500Z,45.20
2022-11-29T15:08:52.572Z,69.38
2022-11-29T15:11:52.650Z,56.97
2022-11-29T15:14:27.294Z,43.47
2022-11-29T15:17:27.760Z,48.00
2022-11-29T15:20:30.930Z,46.67
2022-11-29T15:23:04.928Z,47.40
2022-11-29T15:25:32.842Z,50.43
2022-11-29T15:28:02.133Z,54.93
2022-11-29T15:30:33.903Z,59.03
2022-11-29T15:33:03.279Z,54.10
2022-11-29T15:35:30.605Z,38.50
2022-11-29T15:37:57.508Z,43.47
2022-11-29T15:40:31.359Z,53.63
2022-11-29T15:43:01.914Z,52.33
2022-11-29T15:45:33.822Z,55.60
2022-11-29T15:48:19.836Z,49.53
2022-11-29T15:51:15.942Z,54.80
2022-11-29T15:53:43.195Z,43.73
2022-11-29T15:56:19.672Z,37.83
2022-11-29T15:58:49.309Z,50.97
2022-11-29T16:01:20.984Z,46.13
2022-11-29T16:03:51.123Z,41.73
2022-11-29T16:06:38.482Z,46.07
2022-11-29T16:09:12.573Z,40.57
2022-11-29T16:11:40.000Z,49.27
2022-11-29T16:14:07.167Z,52.10
2022-11-29T16:16:35.471Z,45.40
2022-11-29T16:19:19.034Z,42.47
2022-11-29T16:21:45.681Z,41.77
2022-11-29T16:24:21.727Z,43.43
2022-11-29T16:26:50.547Z,44.90
2022-11-29T16:29:35.749Z,42.87
2022-11-29T16:32:18.003Z,43.43
2022-11-29T16:34:45.474Z,59.17
2022-11-29T16:37:18.522Z,45.57
2022-11-29T16:39:48.073Z,54.05
2022-11-29T16:42:28.133Z,42.70
2022-11-29T16:45:27.126Z,43.57
2022-11-29T16:47:58.836Z,41.73
2022-11-29T16:50:27.919Z,52.27
2022-11-29T16:52:56.828Z,41.77
2022-11-29T16:55:24.337Z,40.73
2022-11-29T16:57:52.184Z,30.33
2022-11-29T17:00:24.243Z,50.93
2022-11-29T17:02:50.955Z,39.73
2022-11-29T17:05:18.018Z,46.13
2022-11-29T17:07:45.128Z,39.93
2022-11-29T17:10:17.776Z,52.73
2022-11-29T17:12:48.227Z,54.87
2022-11-29T17:15:15.224Z,48.77
2022-11-29T17:17:43.364Z,50.40
2022-11-29T17:20:12.607Z,43.33
2022-11-29T17:22:39.311Z,41.73
2022-11-29T17:25:06.417Z,45.37
2022-11-29T17:27:33.457Z,36.70
2022-11-29T17:30:00.462Z,44.90
2022-11-29T17:32:27.329Z,49.10
2022-11-29T17:34:54.451Z,43.67
2022-11-29T17:37:21.477Z,46.53
2022-11-29T17:39:49.033Z,54.27
2022-11-29T17:42:16.144Z,59.80
2022-11-29T17:44:43.234Z,42.30
2022-11-29T17:47:10.241Z,42.67
2022-11-29T17:49:37.227Z,41.27
2022-11-29T17:52:03.931Z,46.23
2022-11-29T17:54:32.978Z,36.87
2022-11-29T17:57:00.819Z,37.63
2022-11-29T17:59:27.504Z,41.60
2022-11-29T18:01:54.160Z,40.07
2022-11-29T18:04:20.895Z,44.10
2022-11-29T18:06:50.192Z,36.87
2022-11-29T18:09:18.129Z,48.00
2022-11-29T18:11:48.744Z,46.27
2022-11-29T18:14:23.233Z,36.20
2022-11-29T18:16:50.400Z,36.87
2022-11-29T18:19:19.084Z,39.03
2022-11-29T18:21:46.423Z,40.80
2022-11-29T18:24:13.432Z,42.27
2022-11-29T18:26:40.248Z,39.57
2022-11-29T18:29:07.474Z,41.93
2022-11-29T18:31:39.851Z,36.50
2022-11-29T18:34:09.414Z,43.13
2022-11-29T18:36:39.723Z,46.80
2022-11-29T18:39:09.025Z,46.30
2022-11-29T18:41:36.695Z,48.87
2022-11-29T18:44:09.349Z,35.00
2022-11-29T18:46:38.512Z,52.10
2022-11-29T18:49:07.832Z,41.70
2022-11-29T18:51:35.113Z,44.53
2022-11-29T18:54:02.450Z,42.13
2022-11-29T18:56:31.882Z,49.73
2022-11-29T18:58:58.946Z,51.27
2022-11-29T19:01:28.330Z,41.10
2022-11-29T19:03:57.083Z,48.47
2022-11-29T19:06:26.336Z,35.57
2022-11-29T19:08:53.759Z,53.73
2022-11-29T19:11:23.138Z,50.07
2022-11-29T19:13:56.181Z,55.20
2022-11-29T19:16:24.348Z,41.57
2022-11-29T19:18:54.941Z,41.00
2022-11-29T19:21:23.231Z,44.47
2022-11-29T19:23:57.991Z,40.67
2022-11-29T19:26:27.133Z,46.03
2022-11-29T19:28:54.269Z,35.97
2022-11-29T19:31:24.807Z,35.37
2022-11-29T19:33:52.547Z,32.23
2022-11-29T19:36:30.868Z,37.47
2022-11-29T19:39:01.880Z,37.53
2022-11-29T19:41:33.696Z,35.87
2022-11-29T19:44:06.185Z,32.87
2022-11-29T19:46:36.423Z,31.93
2022-11-29T19:49:04.912Z,33.43
2022-11-29T19:51:32.333Z,30.63
2022-11-29T19:54:01.878Z,34.90
2022-11-29T19:56:29.523Z,34.10
2022-11-29T19:58:56.281Z,30.30
2022-11-29T20:01:25.268Z,31.83
2022-11-29T20:03:52.519Z,35.77
2022-11-29T20:06:19.599Z,34.07
2022-11-29T20:08:46.712Z,35.95
2022-11-29T20:11:16.970Z,27.87
2022-11-29T20:13:47.545Z,29.93
2022-11-29T20:16:18.137Z,31.83
2022-11-29T20:18:50.718Z,28.03
2022-11-29T20:21:22.053Z,27.73
2022-11-29T20:23:49.328Z,29.20
2022-11-29T20:26:18.400Z,30.43
2022-11-29T20:28:46.210Z,30.37
2022-11-29T20:31:18.793Z,29.67
2022-11-29T20:33:46.946Z,27.63
2022-11-29T20:36:39.497Z,24.00
2022-11-29T20:39:28.847Z,25.10
2022-11-29T20:42:26.325Z,20.87
2022-11-29T20:44:55.342Z,27.43
2022-11-29T20:47:31.772Z,24.73
2022-11-29T20:49:58.605Z,29.40
2022-11-29T20:52:51.492Z,25.87
2022-11-29T20:55:18.464Z,28.30
2022-11-29T20:57:45.479Z,28.20
2022-11-29T21:00:13.132Z,31.87
2022-11-29T21:02:39.884Z,29.63
2022-11-29T21:05:07.316Z,34.67
2022-11-29T21:07:34.559Z,32.53
2022-11-29T21:10:02.131Z,32.03
2022-11-29T21:12:29.938Z,28.00
2022-11-29T21:14:57.272Z,31.93
2022-11-29T21:17:30.121Z,31.60
2022-11-29T21:20:00.264Z,34.53
2022-11-29T21:22:32.425Z,36.63
2022-11-29T21:25:31.187Z,35.13
2022-11-29T21:27:58.427Z,32.20
2022-11-29T21:30:25.575Z,33.90
2022-11-29T21:32:52.739Z,37.23
2022-11-29T21:35:19.539Z,33.63
2022-11-29T21:37:46.694Z,40.53
2022-11-29T21:40:14.915Z,37.50
2022-11-29T21:42:41.978Z,35.37
2022-11-29T21:45:14.903Z,33.70
2022-11-29T21:47:43.900Z,40.40
2022-11-29T21:50:11.856Z,35.50
2022-11-29T21:52:39.017Z,32.00
2022-11-29T21:55:06.134Z,30.03
2022-11-29T21:57:33.141Z,38.23
2022-11-29T22:00:00.144Z,31.17
2022-11-29T22:02:27.290Z,31.20
2022-11-29T22:04:53.909Z,37.80
2022-11-29T22:07:20.543Z,37.43
2022-11-29T22:09:47.588Z,41.33
2022-11-29T22:12:33.042Z,33.97
2022-11-29T22:15:00.610Z,39.93
2022-11-29T22:17:27.642Z,33.47
2022-11-29T22:19:54.616Z,30.80
2022-11-29T22:22:21.608Z,34.07
2022-11-29T22:24:48.373Z,34.67
2022-11-29T22:27:17.584Z,33.77
2022-11-29T22:29:45.004Z,35.53
2022-11-29T22:32:11.999Z,42.53
2022-11-29T22:34:38.744Z,34.93
2022-11-29T22:37:05.343Z,37.43
2022-11-29T22:39:32.455Z,44.10
2022-11-29T22:41:59.079Z,39.73
2022-11-29T22:44:25.698Z,31.20
2022-11-29T22:46:52.600Z,35.20
2022-11-29T22:49:19.461Z,36.60
2022-11-29T22:51:46.461Z,36.10
2022-11-29T22:54:16.254Z,39.23
2022-11-29T22:56:43.671Z,41.90
2022-11-29T22:59:10.525Z,44.57
2022-11-29T23:01:39.785Z,34.40
2022-11-29T23:04:08.007Z,38.90
2022-11-29T23:06:37.552Z,35.40
2022-11-29T23:09:11.927Z,31.60
2022-11-29T23:11:38.967Z,34.63
2022-11-29T23:14:06.001Z,38.23
2022-11-29T23:16:33.426Z,39.00
2022-11-29T23:19:00.733Z,37.23
2022-11-29T23:21:32.767Z,39.53
2022-11-29T23:24:02.704Z,32.87
2022-11-29T23:26:40.068Z,37.03
2022-11-29T23:29:08.996Z,33.67
2022-11-29T23:31:35.884Z,34.13
2022-11-29T23:34:03.328Z,37.30
2022-11-29T23:36:30.282Z,41.97
2022-11-29T23:38:57.290Z,35.87
2022-11-29T23:41:23.904Z,31.63
2022-11-29T23:43:51.143Z,33.87
2022-11-29T23:46:20.957Z,31.50
2022-11-29T23:48:48.370Z,31.07
2022-11-29T23:51:15.494Z,40.07
2022-11-29T23:53:42.561Z,35.73
2022-11-29T23:56:14.588Z,29.63
2022-11-29T23:58:41.947Z,35.20
